sensor_id;sensor_type;location;lat;lon;timestamp;pressure;altitude;pressure_sealevel;temperature;humidity
64192;BME280;50497;50.720;-2.084;2023-06-22T00:01:47;102091.84;;;16.39;100.00
64192;BME280;50497;50.720;-2.084;2023-06-22T00:04:13;102099.16;;;16.55;100.00
64192;BME280;50497;50.720;-2.084;2023-06-22T00:06:38;102097.88;;;16.44;100.00
64192;BME280;50497;50.720;-2.084;2023-06-22T00:09:03;102105.59;;;16.52;100.00
64192;BME280;50497;50.720;-2.084;2023-06-22T00:11:29;102097.41;;;16.54;100.00
64192;BME280;50497;50.720;-2.084;2023-06-22T00:13:56;102104.47;;;16.56;100.00
64192;BME280;50497;50.720;-2.084;2023-06-22T00:16:21;102103.47;;;16.59;100.00
64192;BME280;50497;50.720;-2.084;2023-06-22T00:18:47;102109.50;;;16.64;100.00
64192;BME280;50497;50.720;-2.084;2023-06-22T00:21:14;102113.28;;;16.60;100.00
64192;BME280;50497;50.720;-2.084;2023-06-22T00:23:39;102107.28;;;16.72;100.00
64192;BME280;50497;50.720;-2.084;2023-06-22T00:26:04;102104.81;;;16.68;100.00
64192;BME280;50497;50.720;-2.084;2023-06-22T00:28:30;102086.28;;;16.60;100.00
64192;BME280;50497;50.720;-2.084;2023-06-22T00:30:55;102089.31;;;16.71;100.00
64192;BME280;50497;50.720;-2.084;2023-06-22T00:33:21;102087.03;;;16.63;100.00
64192;BME280;50497;50.720;-2.084;2023-06-22T00:35:46;102079.56;;;16.69;100.00
64192;BME280;50497;50.720;-2.084;2023-06-22T00:38:11;102087.25;;;16.76;100.00
64192;BME280;50497;50.720;-2.084;2023-06-22T00:40:37;102088.06;;;16.78;100.00
64192;BME280;50497;50.720;-2.084;2023-06-22T00:43:03;102085.03;;;16.85;100.00
64192;BME280;50497;50.720;-2.084;2023-06-22T00:45:30;102086.84;;;16.84;100.00
64192;BME280;50497;50.720;-2.084;2023-06-22T00:47:59;102090.50;;;16.83;100.00
64192;BME280;50497;50.720;-2.084;2023-06-22T00:50:29;102089.88;;;16.78;100.00
64192;BME280;50497;50.720;-2.084;2023-06-22T00:53:00;102077.56;;;16.72;100.00
64192;BME280;50497;50.720;-2.084;2023-06-22T00:55:26;102076.50;;;16.75;100.00
64192;BME280;50497;50.720;-2.084;2023-06-22T00:57:53;102082.53;;;16.80;100.00
64192;BME280;50497;50.720;-2.084;2023-06-22T01:00:23;102091.78;;;16.76;100.00
64192;BME280;50497;50.720;-2.084;2023-06-22T01:02:50;102081.69;;;16.79;100.00
64192;BME280;50497;50.720;-2.084;2023-06-22T01:05:21;102092.25;;;16.84;100.00
64192;BME280;50497;50.720;-2.084;2023-06-22T01:10:43;102097.66;;;17.02;100.00
64192;BME280;50497;50.720;-2.084;2023-06-22T01:15:46;102102.72;;;16.92;100.00
64192;BME280;50497;50.720;-2.084;2023-06-22T01:18:16;102098.72;;;16.99;100.00
64192;BME280;50497;50.720;-2.084;2023-06-22T01:20:42;102099.44;;;17.03;100.00
64192;BME280;50497;50.720;-2.084;2023-06-22T01:23:27;102104.75;;;17.04;100.00
64192;BME280;50497;50.720;-2.084;2023-06-22T01:26:55;102105.78;;;17.02;100.00
64192;BME280;50497;50.720;-2.084;2023-06-22T01:29:18;102106.66;;;17.02;100.00
64192;BME280;50497;50.720;-2.084;2023-06-22T01:31:45;102106.03;;;16.97;100.00
64192;BME280;50497;50.720;-2.084;2023-06-22T01:34:12;102093.53;;;17.12;100.00
64192;BME280;50497;50.720;-2.084;2023-06-22T01:36:39;102094.41;;;17.12;100.00
64192;BME280;50497;50.720;-2.084;2023-06-22T01:39:06;102094.41;;;17.12;100.00
64192;BME280;50497;50.720;-2.084;2023-06-22T01:41:36;102101.88;;;17.07;100.00
64192;BME280;50497;50.720;-2.084;2023-06-22T01:44:05;102105.69;;;17.03;100.00
64192;BME280;50497;50.720;-2.084;2023-06-22T01:46:32;102113.56;;;17.08;100.00
64192;BME280;50497;50.720;-2.084;2023-06-22T01:48:58;102110.72;;;17.11;100.00
64192;BME280;50497;50.720;-2.084;2023-06-22T01:51:24;102108.88;;;17.11;100.00
64192;BME280;50497;50.720;-2.084;2023-06-22T01:53:49;102115.56;;;17.22;100.00
64192;BME280;50497;50.720;-2.084;2023-06-22T01:56:16;102105.94;;;17.16;100.00
64192;BME280;50497;50.720;-2.084;2023-06-22T01:58:50;102108.16;;;17.25;100.00
64192;BME280;50497;50.720;-2.084;2023-06-22T02:01:20;102117.59;;;17.16;100.00
64192;BME280;50497;50.720;-2.084;2023-06-22T02:03:57;102111.56;;;17.29;100.00
64192;BME280;50497;50.720;-2.084;2023-06-22T02:06:30;102113.47;;;17.27;100.00
64192;BME280;50497;50.720;-2.084;2023-06-22T02:09:02;102102.81;;;17.24;100.00
64192;BME280;50497;50.720;-2.084;2023-06-22T02:11:28;102098.69;;;17.16;100.00
64192;BME280;50497;50.720;-2.084;2023-06-22T02:13:57;102103.31;;;17.14;100.00
64192;BME280;50497;50.720;-2.084;2023-06-22T02:16:23;102097.44;;;17.06;100.00
64192;BME280;50497;50.720;-2.084;2023-06-22T02:18:49;102106.97;;;17.13;100.00
64192;BME280;50497;50.720;-2.084;2023-06-22T02:21:19;102100.47;;;17.00;100.00
64192;BME280;50497;50.720;-2.084;2023-06-22T02:23:45;102103.72;;;16.89;100.00
64192;BME280;50497;50.720;-2.084;2023-06-22T02:26:11;102109.19;;;16.70;100.00
64192;BME280;50497;50.720;-2.084;2023-06-22T02:28:37;102106.31;;;16.56;100.00
64192;BME280;50497;50.720;-2.084;2023-06-22T02:31:02;102103.66;;;16.37;100.00
64192;BME280;50497;50.720;-2.084;2023-06-22T02:33:27;102106.75;;;16.29;100.00
64192;BME280;50497;50.720;-2.084;2023-06-22T02:35:53;102112.94;;;16.31;100.00
64192;BME280;50497;50.720;-2.084;2023-06-22T02:38:18;102108.81;;;16.24;100.00
64192;BME280;50497;50.720;-2.084;2023-06-22T02:40:45;102108.75;;;16.25;100.00
64192;BME280;50497;50.720;-2.084;2023-06-22T02:43:10;102106.75;;;16.29;100.00
64192;BME280;50497;50.720;-2.084;2023-06-22T02:45:36;102106.53;;;16.34;100.00
64192;BME280;50497;50.720;-2.084;2023-06-22T02:48:01;102107.41;;;16.34;100.00
64192;BME280;50497;50.720;-2.084;2023-06-22T02:50:26;102110.97;;;16.35;100.00
64192;BME280;50497;50.720;-2.084;2023-06-22T02:52:52;102111.69;;;16.38;100.00
64192;BME280;50497;50.720;-2.084;2023-06-22T02:55:17;102108.19;;;16.36;100.00
64192;BME280;50497;50.720;-2.084;2023-06-22T02:57:43;102113.59;;;16.36;100.00
64192;BME280;50497;50.720;-2.084;2023-06-22T03:00:09;102117.09;;;16.38;100.00
64192;BME280;50497;50.720;-2.084;2023-06-22T03:02:43;102113.59;;;16.36;100.00
64192;BME280;50497;50.720;-2.084;2023-06-22T03:05:09;102117.16;;;16.37;100.00
64192;BME280;50497;50.720;-2.084;2023-06-22T03:07:39;102124.88;;;16.44;100.00
64192;BME280;50497;50.720;-2.084;2023-06-22T03:10:04;102124.59;;;16.51;100.00
64192;BME280;50497;50.720;-2.084;2023-06-22T03:12:30;102131.66;;;16.53;100.00
64192;BME280;50497;50.720;-2.084;2023-06-22T03:14:55;102129.69;;;16.57;100.00
64192;BME280;50497;50.720;-2.084;2023-06-22T03:17:20;102128.09;;;16.53;100.00
64192;BME280;50497;50.720;-2.084;2023-06-22T03:19:46;102127.59;;;16.44;100.00
64192;BME280;50497;50.720;-2.084;2023-06-22T03:22:11;102114.56;;;16.35;100.00
64192;BME280;50497;50.720;-2.084;2023-06-22T03:24:36;102118.56;;;16.26;100.00
64192;BME280;50497;50.720;-2.084;2023-06-22T03:27:04;102108.09;;;16.20;100.00
64192;BME280;50497;50.720;-2.084;2023-06-22T03:29:30;102123.47;;;16.18;100.00
64192;BME280;50497;50.720;-2.084;2023-06-22T03:31:56;102113.13;;;16.09;100.00
64192;BME280;50497;50.720;-2.084;2023-06-22T03:34:21;102117.91;;;16.04;100.00
64192;BME280;50497;50.720;-2.084;2023-06-22T03:36:47;102112.72;;;15.99;100.00
64192;BME280;50497;50.720;-2.084;2023-06-22T03:39:12;102108.00;;;15.85;100.00
64192;BME280;50497;50.720;-2.084;2023-06-22T03:41:38;102116.81;;;15.89;100.00
64192;BME280;50497;50.720;-2.084;2023-06-22T03:44:04;102114.75;;;15.94;100.00
64192;BME280;50497;50.720;-2.084;2023-06-22T03:46:29;102125.56;;;15.94;100.00
64192;BME280;50497;50.720;-2.084;2023-06-22T03:48:54;102118.41;;;15.93;100.00
64192;BME280;50497;50.720;-2.084;2023-06-22T03:51:20;102126.28;;;15.98;100.00
64192;BME280;50497;50.720;-2.084;2023-06-22T03:53:45;102138.78;;;16.00;100.00
64192;BME280;50497;50.720;-2.084;2023-06-22T03:56:10;102139.63;;;16.01;100.00
64192;BME280;50497;50.720;-2.084;2023-06-22T03:58:36;102139.84;;;15.96;100.00
64192;BME280;50497;50.720;-2.084;2023-06-22T04:01:02;102142.31;;;15.82;100.00
64192;BME280;50497;50.720;-2.084;2023-06-22T04:03:27;102146.97;;;15.78;100.00
64192;BME280;50497;50.720;-2.084;2023-06-22T04:05:52;102148.94;;;15.75;100.00
64192;BME280;50497;50.720;-2.084;2023-06-22T04:08:18;102143.16;;;15.63;100.00
64192;BME280;50497;50.720;-2.084;2023-06-22T04:10:43;102135.50;;;15.54;100.00
64192;BME280;50497;50.720;-2.084;2023-06-22T04:13:09;102138.31;;;15.51;100.00
64192;BME280;50497;50.720;-2.084;2023-06-22T04:15:35;102124.44;;;15.40;100.00
64192;BME280;50497;50.720;-2.084;2023-06-22T04:18:00;102125.69;;;15.32;100.00
64192;BME280;50497;50.720;-2.084;2023-06-22T04:20:26;102118.53;;;15.31;100.00
64192;BME280;50497;50.720;-2.084;2023-06-22T04:22:53;102122.16;;;15.30;100.00
64192;BME280;50497;50.720;-2.084;2023-06-22T04:25:19;102119.31;;;15.33;100.00
64192;BME280;50497;50.720;-2.084;2023-06-22T04:27:45;102125.25;;;15.42;100.00
64192;BME280;50497;50.720;-2.084;2023-06-22T04:30:10;102118.06;;;15.42;100.00
64192;BME280;50497;50.720;-2.084;2023-06-22T04:32:37;102125.31;;;15.40;100.00
64192;BME280;50497;50.720;-2.084;2023-06-22T04:35:03;102131.44;;;15.44;100.00
64192;BME280;50497;50.720;-2.084;2023-06-22T04:37:32;102128.69;;;15.45;100.00
64192;BME280;50497;50.720;-2.084;2023-06-22T04:39:57;102128.47;;;15.50;100.00
64192;BME280;50497;50.720;-2.084;2023-06-22T04:42:24;102132.94;;;15.51;100.00
64192;BME280;50497;50.720;-2.084;2023-06-22T04:44:50;102142.34;;;15.61;100.00
64192;BME280;50497;50.720;-2.084;2023-06-22T04:47:15;102151.91;;;15.68;100.00
64192;BME280;50497;50.720;-2.084;2023-06-22T04:49:40;102159.78;;;15.73;100.00
64192;BME280;50497;50.720;-2.084;2023-06-22T04:52:10;102178.22;;;15.84;100.00
64192;BME280;50497;50.720;-2.084;2023-06-22T04:54:36;102193.09;;;15.93;100.00
64192;BME280;50497;50.720;-2.084;2023-06-22T04:57:03;102201.72;;;16.01;100.00
64192;BME280;50497;50.720;-2.084;2023-06-22T04:59:31;102205.16;;;16.04;100.00
64192;BME280;50497;50.720;-2.084;2023-06-22T05:02:00;102208.50;;;16.10;100.00
64192;BME280;50497;50.720;-2.084;2023-06-22T05:04:27;102209.88;;;16.18;100.00
64192;BME280;50497;50.720;-2.084;2023-06-22T05:06:54;102215.28;;;16.18;100.00
64192;BME280;50497;50.720;-2.084;2023-06-22T05:09:20;102213.34;;;16.22;100.00
64192;BME280;50497;50.720;-2.084;2023-06-22T05:11:46;102218.34;;;16.30;100.00
64192;BME280;50497;50.720;-2.084;2023-06-22T05:14:12;102210.03;;;16.34;100.00
64192;BME280;50497;50.720;-2.084;2023-06-22T05:16:38;102203.69;;;16.35;100.00
64192;BME280;50497;50.720;-2.084;2023-06-22T05:19:04;102202.16;;;16.30;100.00
64192;BME280;50497;50.720;-2.084;2023-06-22T05:21:30;102201.41;;;16.45;100.00
64192;BME280;50497;50.720;-2.084;2023-06-22T05:23:56;102200.03;;;16.36;100.00
64192;BME280;50497;50.720;-2.084;2023-06-22T05:26:26;102197.47;;;16.52;100.00
64192;BME280;50497;50.720;-2.084;2023-06-22T05:28:52;102180.56;;;16.66;100.00
64192;BME280;50497;50.720;-2.084;2023-06-22T05:31:18;102168.81;;;16.67;100.00
64192;BME280;50497;50.720;-2.084;2023-06-22T05:33:45;102159.41;;;16.74;100.00
64192;BME280;50497;50.720;-2.084;2023-06-22T05:36:12;102164.00;;;16.91;100.00
64192;BME280;50497;50.720;-2.084;2023-06-22T05:38:38;102164.63;;;16.96;100.00
64192;BME280;50497;50.720;-2.084;2023-06-22T05:41:03;102153.50;;;17.03;100.00
64192;BME280;50497;50.720;-2.084;2023-06-22T05:43:29;102145.94;;;17.09;100.00
64192;BME280;50497;50.720;-2.084;2023-06-22T05:45:54;102144.09;;;17.10;100.00
64192;BME280;50497;50.720;-2.084;2023-06-22T05:48:19;102149.75;;;16.88;100.00
64192;BME280;50497;50.720;-2.084;2023-06-22T05:50:45;102146.19;;;17.05;100.00
64192;BME280;50497;50.720;-2.084;2023-06-22T05:53:10;102132.09;;;17.15;100.00
64192;BME280;50497;50.720;-2.084;2023-06-22T05:55:36;102131.63;;;17.07;100.00
64192;BME280;50497;50.720;-2.084;2023-06-22T05:58:01;102125.28;;;17.08;100.00
64192;BME280;50497;50.720;-2.084;2023-06-22T06:00:30;102130.09;;;17.02;100.00
64192;BME280;50497;50.720;-2.084;2023-06-22T06:02:56;102127.41;;;17.19;100.00
64192;BME280;50497;50.720;-2.084;2023-06-22T06:05:21;102120.97;;;17.22;100.00
64192;BME280;50497;50.720;-2.084;2023-06-22T06:07:48;102122.53;;;17.26;100.00
64192;BME280;50497;50.720;-2.084;2023-06-22T06:10:13;102122.25;;;17.48;100.00
64192;BME280;50497;50.720;-2.084;2023-06-22T06:12:39;102115.47;;;17.57;100.00
64192;BME280;50497;50.720;-2.084;2023-06-22T06:15:05;102124.03;;;17.65;100.00
64192;BME280;50497;50.720;-2.084;2023-06-22T06:17:31;102119.50;;;17.65;100.00
64192;BME280;50497;50.720;-2.084;2023-06-22T06:19:56;102117.44;;;17.86;100.00
64192;BME280;50497;50.720;-2.084;2023-06-22T06:22:23;102131.84;;;18.03;100.00
64192;BME280;50497;50.720;-2.084;2023-06-22T06:24:49;102137.72;;;18.27;100.00
64192;BME280;50497;50.720;-2.084;2023-06-22T06:27:15;102138.91;;;18.53;100.00
64192;BME280;50497;50.720;-2.084;2023-06-22T06:29:40;102148.78;;;18.54;100.00
64192;BME280;50497;50.720;-2.084;2023-06-22T06:32:06;102149.06;;;18.50;100.00
64192;BME280;50497;50.720;-2.084;2023-06-22T06:34:31;102157.88;;;18.53;100.00
64192;BME280;50497;50.720;-2.084;2023-06-22T06:36:57;102173.81;;;18.43;100.00
64192;BME280;50497;50.720;-2.084;2023-06-22T06:39:22;102177.38;;;18.60;100.00
64192;BME280;50497;50.720;-2.084;2023-06-22T06:41:48;102187.75;;;19.14;100.00
64192;BME280;50497;50.720;-2.084;2023-06-22T06:44:13;102198.56;;;19.30;100.00
64192;BME280;50497;50.720;-2.084;2023-06-22T06:46:39;102226.81;;;19.70;100.00
64192;BME280;50497;50.720;-2.084;2023-06-22T06:49:04;102262.91;;;19.72;100.00
64192;BME280;50497;50.720;-2.084;2023-06-22T06:51:30;102275.28;;;20.21;100.00
64192;BME280;50497;50.720;-2.084;2023-06-22T06:53:55;102290.69;;;20.64;100.00
64192;BME280;50497;50.720;-2.084;2023-06-22T06:56:20;102326.22;;;20.75;100.00
64192;BME280;50497;50.720;-2.084;2023-06-22T06:58:46;102348.44;;;21.23;100.00
64192;BME280;50497;50.720;-2.084;2023-06-22T07:01:14;102357.94;;;20.89;100.00
64192;BME280;50497;50.720;-2.084;2023-06-22T07:03:39;102375.44;;;20.85;100.00
64192;BME280;50497;50.720;-2.084;2023-06-22T07:06:05;102351.66;;;21.16;100.00
64192;BME280;50497;50.720;-2.084;2023-06-22T07:08:30;102364.88;;;21.49;100.00
64192;BME280;50497;50.720;-2.084;2023-06-22T07:10:56;102381.28;;;21.75;100.00
64192;BME280;50497;50.720;-2.084;2023-06-22T07:13:21;102391.16;;;22.03;100.00
64192;BME280;50497;50.720;-2.084;2023-06-22T07:15:47;102384.25;;;21.98;100.00
64192;BME280;50497;50.720;-2.084;2023-06-22T07:18:12;102403.91;;;22.15;100.00
64192;BME280;50497;50.720;-2.084;2023-06-22T07:20:37;102406.78;;;22.40;100.00
64192;BME280;50497;50.720;-2.084;2023-06-22T07:23:04;102407.16;;;22.85;100.00
64192;BME280;50497;50.720;-2.084;2023-06-22T07:25:30;102414.84;;;22.54;100.00
64192;BME280;50497;50.720;-2.084;2023-06-22T07:28:00;102425.94;;;22.90;100.00
64192;BME280;50497;50.720;-2.084;2023-06-22T07:30:27;102430.34;;;23.53;100.00
64192;BME280;50497;50.720;-2.084;2023-06-22T07:32:53;102447.19;;;22.97;100.00
64192;BME280;50497;50.720;-2.084;2023-06-22T07:35:18;102431.50;;;23.62;100.00
64192;BME280;50497;50.720;-2.084;2023-06-22T07:37:44;102466.50;;;23.33;100.00
64192;BME280;50497;50.720;-2.084;2023-06-22T07:40:09;102431.50;;;23.86;100.00
64192;BME280;50497;50.720;-2.084;2023-06-22T07:42:35;102326.31;;;24.03;100.00
64192;BME280;50497;50.720;-2.084;2023-06-22T07:45:01;102296.09;;;24.05;100.00
64192;BME280;50497;50.720;-2.084;2023-06-22T07:47:27;102261.03;;;23.87;100.00
64192;BME280;50497;50.720;-2.084;2023-06-22T07:49:54;102237.84;;;23.57;100.00
64192;BME280;50497;50.720;-2.084;2023-06-22T07:52:21;102229.06;;;23.65;100.00
64192;BME280;50497;50.720;-2.084;2023-06-22T07:54:46;102211.56;;;23.68;100.00
64192;BME280;50497;50.720;-2.084;2023-06-22T07:57:12;102201.84;;;24.65;100.00
64192;BME280;50497;50.720;-2.084;2023-06-22T07:59:37;102188.84;;;25.00;100.00
64192;BME280;50497;50.720;-2.084;2023-06-22T08:02:04;101905.97;;;25.50;100.00
64192;BME280;50497;50.720;-2.084;2023-06-22T08:04:30;101863.34;;;25.06;100.00
64192;BME280;50497;50.720;-2.084;2023-06-22T08:06:57;101853.34;;;24.86;100.00
64192;BME280;50497;50.720;-2.084;2023-06-22T08:09:22;101827.59;;;24.98;100.00
64192;BME280;50497;50.720;-2.084;2023-06-22T08:11:47;101826.22;;;24.73;100.00
64192;BME280;50497;50.720;-2.084;2023-06-22T08:14:14;101834.91;;;24.88;100.00
64192;BME280;50497;50.720;-2.084;2023-06-22T08:16:41;101833.66;;;25.12;100.00
64192;BME280;50497;50.720;-2.084;2023-06-22T08:19:06;101807.88;;;26.02;100.00
64192;BME280;50497;50.720;-2.084;2023-06-22T08:21:32;101758.94;;;26.45;100.00
64192;BME280;50497;50.720;-2.084;2023-06-22T08:23:57;101733.06;;;26.10;100.00
64192;BME280;50497;50.720;-2.084;2023-06-22T08:26:22;101724.22;;;25.78;100.00
64192;BME280;50497;50.720;-2.084;2023-06-22T08:28:48;101718.44;;;26.29;100.00
64192;BME280;50497;50.720;-2.084;2023-06-22T08:31:14;101672.44;;;26.68;100.00
64192;BME280;50497;50.720;-2.084;2023-06-22T08:33:39;101613.28;;;26.92;100.00
64192;BME280;50497;50.720;-2.084;2023-06-22T08:36:05;101541.22;;;27.51;100.00
64192;BME280;50497;50.720;-2.084;2023-06-22T08:38:31;101514.38;;;27.87;100.00
64192;BME280;50497;50.720;-2.084;2023-06-22T08:40:57;101493.06;;;27.81;100.00
64192;BME280;50497;50.720;-2.084;2023-06-22T08:43:22;101489.44;;;27.30;100.00
64192;BME280;50497;50.720;-2.084;2023-06-22T08:45:47;101440.06;;;27.12;100.00
64192;BME280;50497;50.720;-2.084;2023-06-22T08:48:13;101407.59;;;26.54;100.00
64192;BME280;50497;50.720;-2.084;2023-06-22T08:50:38;101405.47;;;27.35;100.00
64192;BME280;50497;50.720;-2.084;2023-06-22T08:53:05;101376.47;;;27.41;100.00
64192;BME280;50497;50.720;-2.084;2023-06-22T08:55:31;101347.16;;;28.15;100.00
64192;BME280;50497;50.720;-2.084;2023-06-22T08:57:56;100892.56;;;28.36;100.00
64192;BME280;50497;50.720;-2.084;2023-06-22T09:00:22;100813.66;;;28.82;100.00
64192;BME280;50497;50.720;-2.084;2023-06-22T09:02:47;100982.47;;;28.21;100.00
64192;BME280;50497;50.720;-2.084;2023-06-22T09:05:13;101096.69;;;28.40;100.00
64192;BME280;50497;50.720;-2.084;2023-06-22T09:07:39;101136.78;;;28.97;100.00
64192;BME280;50497;50.720;-2.084;2023-06-22T09:10:06;101233.91;;;29.22;100.00
64192;BME280;50497;50.720;-2.084;2023-06-22T09:12:31;101265.38;;;29.51;100.00
64192;BME280;50497;50.720;-2.084;2023-06-22T09:15:00;101247.56;;;28.36;100.00
64192;BME280;50497;50.720;-2.084;2023-06-22T09:17:26;101080.63;;;27.89;100.00
64192;BME280;50497;50.720;-2.084;2023-06-22T09:19:52;101210.50;;;27.01;100.00
64192;BME280;50497;50.720;-2.084;2023-06-22T09:22:17;101316.19;;;28.30;100.00
64192;BME280;50497;50.720;-2.084;2023-06-22T09:24:42;101333.75;;;27.79;100.00
64192;BME280;50497;50.720;-2.084;2023-06-22T09:27:08;101316.38;;;27.71;100.00
64192;BME280;50497;50.720;-2.084;2023-06-22T09:29:33;101219.63;;;27.01;100.00
64192;BME280;50497;50.720;-2.084;2023-06-22T09:31:59;101222.03;;;27.21;100.00
64192;BME280;50497;50.720;-2.084;2023-06-22T09:34:25;101346.72;;;27.28;100.00
64192;BME280;50497;50.720;-2.084;2023-06-22T09:36:50;101372.06;;;28.63;100.00
64192;BME280;50497;50.720;-2.084;2023-06-22T09:39:17;101497.06;;;29.18;100.00
64192;BME280;50497;50.720;-2.084;2023-06-22T09:41:43;101512.78;;;29.57;100.00
64192;BME280;50497;50.720;-2.084;2023-06-22T09:44:08;101642.63;;;29.95;100.00
64192;BME280;50497;50.720;-2.084;2023-06-22T09:46:33;101615.78;;;29.81;100.00
64192;BME280;50497;50.720;-2.084;2023-06-22T09:48:59;101678.19;;;29.74;100.00
64192;BME280;50497;50.720;-2.084;2023-06-22T09:51:24;101673.44;;;29.18;100.00
64192;BME280;50497;50.720;-2.084;2023-06-22T09:53:50;101645.84;;;29.02;100.00
64192;BME280;50497;50.720;-2.084;2023-06-22T09:56:16;101658.59;;;29.44;100.00
64192;BME280;50497;50.720;-2.084;2023-06-22T09:58:42;101655.84;;;29.44;100.00
64192;BME280;50497;50.720;-2.084;2023-06-22T10:01:08;101702.69;;;29.60;100.00
64192;BME280;50497;50.720;-2.084;2023-06-22T10:03:33;101745.34;;;30.14;96.61
64192;BME280;50497;50.720;-2.084;2023-06-22T10:05:59;101666.13;;;28.17;100.00
64192;BME280;50497;50.720;-2.084;2023-06-22T10:08:24;101689.63;;;29.29;100.00
64192;BME280;50497;50.720;-2.084;2023-06-22T10:10:50;101625.88;;;28.83;100.00
64192;BME280;50497;50.720;-2.084;2023-06-22T10:13:15;101635.44;;;28.46;100.00
64192;BME280;50497;50.720;-2.084;2023-06-22T10:15:42;101589.19;;;29.16;100.00
64192;BME280;50497;50.720;-2.084;2023-06-22T10:18:07;101676.13;;;29.59;100.00
64192;BME280;50497;50.720;-2.084;2023-06-22T10:20:33;101693.41;;;30.17;100.00
64192;BME280;50497;50.720;-2.084;2023-06-22T10:22:58;101733.59;;;30.59;100.00
64192;BME280;50497;50.720;-2.084;2023-06-22T10:25:23;101734.00;;;30.00;100.00
64192;BME280;50497;50.720;-2.084;2023-06-22T10:27:49;101727.03;;;30.13;100.00
64192;BME280;50497;50.720;-2.084;2023-06-22T10:30:15;101779.25;;;30.79;94.29
64192;BME280;50497;50.720;-2.084;2023-06-22T10:32:42;101780.56;;;31.22;92.74
64192;BME280;50497;50.720;-2.084;2023-06-22T10:35:08;101799.47;;;31.80;84.42
64192;BME280;50497;50.720;-2.084;2023-06-22T10:37:35;101801.19;;;30.80;85.40
64192;BME280;50497;50.720;-2.084;2023-06-22T10:40:01;101787.84;;;30.52;94.29
64192;BME280;50497;50.720;-2.084;2023-06-22T10:42:28;101793.63;;;31.05;93.72
64192;BME280;50497;50.720;-2.084;2023-06-22T10:44:53;101772.63;;;30.00;100.00
64192;BME280;50497;50.720;-2.084;2023-06-22T10:47:18;101774.59;;;31.10;99.33
64192;BME280;50497;50.720;-2.084;2023-06-22T10:49:44;101777.31;;;30.48;98.36
64192;BME280;50497;50.720;-2.084;2023-06-22T10:52:09;101781.63;;;30.90;93.24
64192;BME280;50497;50.720;-2.084;2023-06-22T10:54:35;101789.38;;;31.41;86.94
64192;BME280;50497;50.720;-2.084;2023-06-22T10:57:01;101803.03;;;31.19;86.60
64192;BME280;50497;50.720;-2.084;2023-06-22T10:59:27;101793.81;;;31.27;84.96
64192;BME280;50497;50.720;-2.084;2023-06-22T11:01:54;101794.59;;;31.82;85.66
64192;BME280;50497;50.720;-2.084;2023-06-22T11:04:20;101798.38;;;32.19;84.51
64192;BME280;50497;50.720;-2.084;2023-06-22T11:06:45;101805.81;;;30.80;86.74
64192;BME280;50497;50.720;-2.084;2023-06-22T11:09:11;101796.03;;;30.13;91.01
64192;BME280;50497;50.720;-2.084;2023-06-22T11:11:36;101790.19;;;31.03;92.16
64192;BME280;50497;50.720;-2.084;2023-06-22T11:14:02;101805.88;;;31.57;75.43
64192;BME280;50497;50.720;-2.084;2023-06-22T11:16:33;101809.56;;;31.87;78.32
64192;BME280;50497;50.720;-2.084;2023-06-22T11:18:59;101789.47;;;31.56;84.34
64192;BME280;50497;50.720;-2.084;2023-06-22T11:21:25;101810.91;;;32.45;75.94
64192;BME280;50497;50.720;-2.084;2023-06-22T11:23:50;101802.97;;;32.27;82.90
64192;BME280;50497;50.720;-2.084;2023-06-22T11:26:15;101808.78;;;32.47;74.22
64192;BME280;50497;50.720;-2.084;2023-06-22T11:28:41;101807.38;;;33.02;77.87
64192;BME280;50497;50.720;-2.084;2023-06-22T11:31:06;101805.81;;;33.14;73.73
64192;BME280;50497;50.720;-2.084;2023-06-22T11:33:32;101799.91;;;32.07;78.31
64192;BME280;50497;50.720;-2.084;2023-06-22T11:35:57;101810.22;;;32.57;72.96
64192;BME280;50497;50.720;-2.084;2023-06-22T11:38:22;101803.31;;;32.83;78.45
64192;BME280;50497;50.720;-2.084;2023-06-22T11:40:48;101803.34;;;32.23;75.15
64192;BME280;50497;50.720;-2.084;2023-06-22T11:43:13;101800.75;;;32.82;75.89
64192;BME280;50497;50.720;-2.084;2023-06-22T11:45:40;101797.44;;;31.74;78.93
64192;BME280;50497;50.720;-2.084;2023-06-22T11:48:05;101809.06;;;32.07;72.79
64192;BME280;50497;50.720;-2.084;2023-06-22T11:50:31;101805.72;;;32.56;72.30
64192;BME280;50497;50.720;-2.084;2023-06-22T11:53:01;101805.13;;;33.27;66.19
64192;BME280;50497;50.720;-2.084;2023-06-22T11:55:26;101807.97;;;33.56;59.34
64192;BME280;50497;50.720;-2.084;2023-06-22T11:57:56;101804.66;;;32.87;61.78
64192;BME280;50497;50.720;-2.084;2023-06-22T12:00:24;101794.50;;;31.90;76.55
64192;BME280;50497;50.720;-2.084;2023-06-22T12:02:51;101770.69;;;31.28;86.98
64192;BME280;50497;50.720;-2.084;2023-06-22T12:05:19;101770.91;;;30.55;89.03
64192;BME280;50497;50.720;-2.084;2023-06-22T12:07:46;101786.81;;;31.39;79.82
64192;BME280;50497;50.720;-2.084;2023-06-22T12:10:11;101779.69;;;32.36;79.62
64192;BME280;50497;50.720;-2.084;2023-06-22T12:12:37;101773.44;;;32.64;79.22
64192;BME280;50497;50.720;-2.084;2023-06-22T12:15:02;101787.72;;;33.83;61.14
64192;BME280;50497;50.720;-2.084;2023-06-22T12:17:29;101785.72;;;33.49;61.34
64192;BME280;50497;50.720;-2.084;2023-06-22T12:19:55;101782.00;;;32.84;73.62
64192;BME280;50497;50.720;-2.084;2023-06-22T12:22:20;101775.81;;;31.92;75.85
64192;BME280;50497;50.720;-2.084;2023-06-22T12:24:46;101788.56;;;32.97;67.43
64192;BME280;50497;50.720;-2.084;2023-06-22T12:27:11;101794.69;;;34.01;61.75
64192;BME280;50497;50.720;-2.084;2023-06-22T12:29:37;101799.38;;;33.50;60.46
64192;BME280;50497;50.720;-2.084;2023-06-22T12:32:02;101790.19;;;33.28;68.45
64192;BME280;50497;50.720;-2.084;2023-06-22T12:34:28;101789.50;;;32.53;66.55